createdAt,value
2024-03-10T00:00:22.168Z,6.50
2024-03-10T00:03:11.107Z,6.47
2024-03-10T00:05:42.107Z,6.44
2024-03-10T00:08:09.854Z,6.42
2024-03-10T00:10:43.232Z,6.41
2024-03-10T00:13:12.793Z,6.38
2024-03-10T00:15:40.586Z,6.35
2024-03-10T00:18:09.206Z,6.35
2024-03-10T00:20:37.180Z,6.32
2024-03-10T00:23:05.170Z,6.32
2024-03-10T00:25:33.188Z,6.31
2024-03-10T00:28:01.184Z,6.29
2024-03-10T00:30:29.591Z,6.27
2024-03-10T00:32:57.730Z,6.26
2024-03-10T00:35:25.656Z,6.24
2024-03-10T00:37:53.928Z,6.22
2024-03-10T00:40:21.850Z,6.21
2024-03-10T00:42:49.507Z,6.20
2024-03-10T00:45:17.399Z,6.17
2024-03-10T00:47:46.395Z,6.14
2024-03-10T00:50:16.007Z,6.07
2024-03-10T00:52:43.950Z,6.02
2024-03-10T00:55:12.141Z,5.95
2024-03-10T00:57:42.049Z,5.90
2024-03-10T01:00:11.980Z,5.84
2024-03-10T01:02:40.480Z,5.79
2024-03-10T01:05:09.014Z,5.74
2024-03-10T01:07:36.833Z,5.71
2024-03-10T01:10:05.131Z,5.68
2024-03-10T01:12:32.929Z,5.66
2024-03-10T01:15:00.615Z,5.64
2024-03-10T01:17:28.752Z,5.62
2024-03-10T01:19:58.082Z,5.60
2024-03-10T01:22:25.973Z,5.58
2024-03-10T01:24:55.385Z,5.55
2024-03-10T01:27:23.108Z,5.51
2024-03-10T01:29:52.185Z,5.46
2024-03-10T01:32:20.056Z,5.42
2024-03-10T01:34:47.953Z,5.40
2024-03-10T01:37:16.786Z,5.36
2024-03-10T01:39:44.593Z,5.34
2024-03-10T01:42:12.405Z,5.31
2024-03-10T01:44:40.446Z,5.28
2024-03-10T01:47:08.844Z,5.26
2024-03-10T01:49:38.038Z,5.22
2024-03-10T01:52:07.827Z,5.20
2024-03-10T01:54:36.287Z,5.18
2024-03-10T01:57:05.274Z,5.15
2024-03-10T01:59:33.433Z,5.13
2024-03-10T02:02:01.643Z,5.11
2024-03-10T02:04:29.826Z,5.10
2024-03-10T02:06:58.038Z,5.09
2024-03-10T02:09:26.151Z,5.06
2024-03-10T02:11:54.116Z,5.05
2024-03-10T02:14:22.395Z,5.03
2024-03-10T02:16:50.937Z,5.02
2024-03-10T02:19:20.010Z,5.02
2024-03-10T02:21:49.023Z,5.01
2024-03-10T02:24:29.215Z,5.01
2024-03-10T02:26:58.132Z,5.01
2024-03-10T02:29:27.885Z,5.00
2024-03-10T02:32:14.322Z,5.00
2024-03-10T02:35:00.797Z,4.99
2024-03-10T02:37:47.830Z,4.99
2024-03-10T02:40:34.151Z,4.98
2024-03-10T02:43:20.530Z,4.98
2024-03-10T02:46:06.945Z,4.97
2024-03-10T02:48:34.654Z,4.98
2024-03-10T02:51:02.318Z,4.98
2024-03-10T02:53:30.266Z,4.98
2024-03-10T02:55:58.499Z,4.98
2024-03-10T02:58:26.302Z,4.97
2024-03-10T03:00:54.082Z,4.97
2024-03-10T03:03:21.750Z,4.95
2024-03-10T03:05:49.642Z,4.94
2024-03-10T03:08:17.784Z,4.93
2024-03-10T03:10:46.016Z,4.90
2024-03-10T03:13:13.800Z,4.89
2024-03-10T03:15:41.465Z,4.88
2024-03-10T03:18:09.426Z,4.86
2024-03-10T03:20:37.304Z,4.85
2024-03-10T03:23:05.589Z,4.85
2024-03-10T03:25:34.009Z,4.84
2024-03-10T03:28:01.926Z,4.83
2024-03-10T03:30:31.635Z,4.82
2024-03-10T03:32:59.680Z,4.81
2024-03-10T03:35:27.570Z,4.78
2024-03-10T03:37:56.755Z,4.77
2024-03-10T03:40:24.849Z,4.75
2024-03-10T03:42:52.569Z,4.73
2024-03-10T03:45:20.253Z,4.73
2024-03-10T03:47:48.064Z,4.71
2024-03-10T03:50:16.751Z,4.71
2024-03-10T03:52:44.640Z,4.71
2024-03-10T03:55:12.600Z,4.70
2024-03-10T03:57:40.293Z,4.69
2024-03-10T04:00:13.182Z,4.70
2024-03-10T04:02:41.115Z,4.71
2024-03-10T04:05:09.491Z,4.72
2024-03-10T04:07:37.351Z,4.72
2024-03-10T04:10:07.254Z,4.71
2024-03-10T04:12:34.996Z,4.70
2024-03-10T04:15:03.452Z,4.69
2024-03-10T04:17:33.066Z,4.67
2024-03-10T04:20:01.495Z,4.66
2024-03-10T04:22:29.481Z,4.65
2024-03-10T04:24:57.257Z,4.64
2024-03-10T04:27:25.378Z,4.64
2024-03-10T04:29:53.172Z,4.63
2024-03-10T04:32:20.929Z,4.63
2024-03-10T04:34:48.912Z,4.63
2024-03-10T04:37:16.825Z,4.63
2024-03-10T04:39:44.702Z,4.63
2024-03-10T04:42:13.471Z,4.64
2024-03-10T04:44:41.281Z,4.63
2024-03-10T04:47:09.001Z,4.64
2024-03-10T04:49:36.711Z,4.62
2024-03-10T04:52:04.881Z,4.61
2024-03-10T04:54:32.681Z,4.61
2024-03-10T04:57:00.896Z,4.59
2024-03-10T04:59:28.764Z,4.57
2024-03-10T05:01:56.690Z,4.56
2024-03-10T05:04:24.464Z,4.56
2024-03-10T05:06:52.359Z,4.55
2024-03-10T05:09:20.155Z,4.55
2024-03-10T05:11:48.006Z,4.54
2024-03-10T05:14:15.834Z,4.54
2024-03-10T05:16:44.826Z,4.53
2024-03-10T05:19:12.685Z,4.54
2024-03-10T05:21:40.384Z,4.55
2024-03-10T05:24:08.840Z,4.56
2024-03-10T05:26:36.705Z,4.57
2024-03-10T05:29:04.421Z,4.57
2024-03-10T05:31:33.802Z,4.57
2024-03-10T05:34:04.684Z,4.59
2024-03-10T05:36:34.205Z,4.59
2024-03-10T05:39:01.912Z,4.59
2024-03-10T05:41:29.749Z,4.58
2024-03-10T05:43:57.953Z,4.58
2024-03-10T05:46:25.806Z,4.59
2024-03-10T05:48:56.918Z,4.60
2024-03-10T05:51:25.015Z,4.62
2024-03-10T05:53:52.804Z,4.65
2024-03-10T05:56:20.514Z,4.64
2024-03-10T05:58:50.223Z,4.66
2024-03-10T06:01:24.967Z,4.67
2024-03-10T06:03:53.102Z,4.66
2024-03-10T06:06:22.366Z,4.67
2024-03-10T06:08:50.195Z,4.69
2024-03-10T06:11:20.052Z,4.71
2024-03-10T06:13:48.346Z,4.75
2024-03-10T06:16:18.497Z,4.79
2024-03-10T06:18:59.782Z,4.83
2024-03-10T06:21:47.434Z,4.87
2024-03-10T06:24:33.913Z,4.91
2024-03-10T06:27:02.336Z,4.94
2024-03-10T06:29:30.517Z,4.98
2024-03-10T06:32:00.108Z,5.03
2024-03-10T06:34:28.129Z,5.08
2024-03-10T06:36:56.215Z,5.13
2024-03-10T06:39:25.779Z,5.20
2024-03-10T06:41:53.469Z,5.23
2024-03-10T06:44:23.176Z,5.24
2024-03-10T06:46:51.522Z,5.24
2024-03-10T06:49:19.431Z,5.25
2024-03-10T06:51:47.815Z,5.28
2024-03-10T06:54:15.595Z,5.30
2024-03-10T06:56:43.316Z,5.33
2024-03-10T06:59:11.056Z,5.38
2024-03-10T07:01:45.984Z,5.44
2024-03-10T07:04:14.843Z,5.49
2024-03-10T07:06:42.870Z,5.53
2024-03-10T07:09:14.409Z,5.58
2024-03-10T07:11:44.217Z,5.65
2024-03-10T07:14:13.774Z,5.70
2024-03-10T07:16:46.468Z,5.75
2024-03-10T07:19:18.072Z,5.81
2024-03-10T07:21:46.102Z,5.88
2024-03-10T07:24:14.048Z,5.93
2024-03-10T07:26:42.895Z,5.98
2024-03-10T07:29:10.726Z,6.02
2024-03-10T07:31:39.414Z,6.07
2024-03-10T07:34:08.561Z,6.12
2024-03-10T07:36:36.723Z,6.18
2024-03-10T07:39:07.584Z,6.20
2024-03-10T07:41:36.315Z,6.23
2024-03-10T07:44:05.246Z,6.30
2024-03-10T07:46:33.476Z,6.38
2024-03-10T07:49:03.711Z,6.51
2024-03-10T07:51:32.409Z,6.66
2024-03-10T07:54:01.968Z,6.76
2024-03-10T07:56:32.347Z,6.84
2024-03-10T07:59:01.958Z,6.81
2024-03-10T08:01:30.262Z,6.78
2024-03-10T08:03:58.132Z,6.77
2024-03-10T08:06:27.129Z,6.80
2024-03-10T08:08:55.295Z,6.84
2024-03-10T08:11:23.431Z,6.87
2024-03-10T08:13:51.396Z,6.89
2024-03-10T08:16:20.147Z,6.95
2024-03-10T08:18:50.586Z,7.00
2024-03-10T08:21:19.858Z,7.06
2024-03-10T08:23:47.809Z,7.21
2024-03-10T08:26:15.835Z,7.34
2024-03-10T08:28:44.005Z,7.42
2024-03-10T08:31:13.980Z,7.51
2024-03-10T08:33:41.620Z,7.70
2024-03-10T08:36:10.199Z,7.93
2024-03-10T08:38:38.444Z,8.09
2024-03-10T08:41:06.616Z,8.20
2024-03-10T08:43:35.969Z,8.28
2024-03-10T08:46:04.473Z,8.41
2024-03-10T08:48:32.387Z,8.57
2024-03-10T08:51:00.183Z,8.68
2024-03-10T08:53:28.490Z,8.83
2024-03-10T08:55:57.110Z,8.88
2024-03-10T08:58:25.712Z,8.84
2024-03-10T09:00:53.476Z,8.85
2024-03-10T09:03:23.639Z,8.85
2024-03-10T09:05:52.180Z,8.85
2024-03-10T09:08:20.854Z,8.88
2024-03-10T09:10:53.824Z,8.94
2024-03-10T09:13:30.697Z,8.89
2024-03-10T09:16:01.352Z,8.74
2024-03-10T09:18:29.188Z,8.66
2024-03-10T09:20:59.052Z,8.62
2024-03-10T09:23:29.193Z,8.63
2024-03-10T09:25:59.233Z,8.66
2024-03-10T09:28:27.436Z,8.61
2024-03-10T09:30:56.535Z,8.56
2024-03-10T09:33:24.914Z,8.55
2024-03-10T09:35:56.727Z,8.54
2024-03-10T09:38:25.365Z,8.60
2024-03-10T09:40:53.126Z,8.69
2024-03-10T09:43:22.455Z,8.75
2024-03-10T09:45:53.172Z,8.83
2024-03-10T09:48:23.272Z,8.92
2024-03-10T09:50:52.799Z,9.01
2024-03-10T09:53:20.813Z,9.10
2024-03-10T09:55:54.026Z,9.08
2024-03-10T09:58:40.346Z,8.98
2024-03-10T10:01:13.114Z,8.96
2024-03-10T10:03:53.768Z,8.97
2024-03-10T10:06:22.472Z,9.04
2024-03-10T10:08:56.640Z,9.03
2024-03-10T10:11:27.713Z,8.97
2024-03-10T10:14:16.085Z,8.97
2024-03-10T10:16:53.144Z,9.04
2024-03-10T10:19:22.263Z,9.10
2024-03-10T10:21:51.621Z,9.16
2024-03-10T10:24:21.280Z,9.26
2024-03-10T10:27:05.250Z,9.30
2024-03-10T10:29:59.810Z,9.29
2024-03-10T10:32:28.030Z,9.28
2024-03-10T10:34:58.096Z,9.30
2024-03-10T10:37:27.167Z,9.37
2024-03-10T10:39:55.369Z,9.43
2024-03-10T10:42:32.963Z,9.50
2024-03-10T10:45:05.332Z,9.60
2024-03-10T10:47:34.656Z,9.72
2024-03-10T10:50:03.376Z,9.85
2024-03-10T10:52:31.210Z,9.96
2024-03-10T10:54:59.307Z,10.05
2024-03-10T10:57:27.282Z,10.10
2024-03-10T10:59:54.993Z,10.15
2024-03-10T11:02:22.895Z,10.24
2024-03-10T11:04:54.437Z,10.40
2024-03-10T11:07:28.904Z,10.47
2024-03-10T11:09:56.684Z,10.58
2024-03-10T11:12:24.786Z,10.67
2024-03-10T11:14:54.615Z,10.72
2024-03-10T11:17:24.961Z,10.70
2024-03-10T11:19:54.248Z,10.63
2024-03-10T11:22:27.076Z,10.59
2024-03-10T11:25:12.336Z,10.57
2024-03-10T11:27:45.781Z,10.56
2024-03-10T11:30:47.190Z,10.57
2024-03-10T11:33:22.410Z,10.62
2024-03-10T11:35:54.476Z,10.71
2024-03-10T11:38:22.667Z,10.82
2024-03-10T11:41:02.119Z,10.90
2024-03-10T11:43:30.152Z,10.98
2024-03-10T11:45:58.135Z,11.06
2024-03-10T11:48:28.058Z,11.14
2024-03-10T11:50:56.068Z,11.21
2024-03-10T11:53:26.694Z,11.29
2024-03-10T11:56:01.941Z,11.35
2024-03-10T11:58:30.557Z,11.37
2024-03-10T12:01:05.374Z,11.37
2024-03-10T12:03:39.443Z,11.38
2024-03-10T12:06:08.159Z,11.41
2024-03-10T12:08:40.858Z,11.36
2024-03-10T12:11:10.317Z,11.31
2024-03-10T12:13:42.425Z,11.27
2024-03-10T12:16:12.228Z,11.31
2024-03-10T12:18:42.211Z,11.30
2024-03-10T12:21:11.750Z,11.28
2024-03-10T12:23:39.517Z,11.26
2024-03-10T12:26:12.517Z,11.24
2024-03-10T12:28:42.279Z,11.23
2024-03-10T12:31:16.507Z,11.26
2024-03-10T12:33:47.347Z,11.29
2024-03-10T12:36:15.107Z,11.34
2024-03-10T12:38:44.544Z,11.46
2024-03-10T12:41:20.032Z,11.58
2024-03-10T12:43:48.300Z,11.65
2024-03-10T12:46:19.292Z,11.72
2024-03-10T12:48:49.087Z,11.79
2024-03-10T12:51:16.996Z,11.84
2024-03-10T12:53:46.453Z,11.88
2024-03-10T12:56:15.141Z,11.94
2024-03-10T12:58:44.967Z,11.94
2024-03-10T13:01:13.037Z,11.93
2024-03-10T13:03:40.829Z,11.94
2024-03-10T13:06:08.706Z,11.92
2024-03-10T13:08:36.550Z,11.92
2024-03-10T13:11:06.203Z,11.93
2024-03-10T13:13:34.025Z,11.93
2024-03-10T13:16:02.054Z,11.94
2024-03-10T13:18:29.776Z,11.95
2024-03-10T13:20:58.118Z,11.95
2024-03-10T13:23:26.438Z,11.94
2024-03-10T13:25:54.254Z,11.94
2024-03-10T13:28:23.877Z,11.94
2024-03-10T13:30:51.609Z,11.93
2024-03-10T13:33:20.136Z,11.94
2024-03-10T13:35:48.468Z,11.93
2024-03-10T13:38:16.625Z,11.91
2024-03-10T13:40:46.851Z,11.92
2024-03-10T13:43:16.117Z,11.92
2024-03-10T13:45:45.717Z,11.91
2024-03-10T13:48:13.477Z,11.90
2024-03-10T13:50:41.392Z,11.89
2024-03-10T13:53:10.714Z,11.88
2024-03-10T13:55:41.730Z,11.89
2024-03-10T13:58:13.178Z,11.88
2024-03-10T14:00:41.946Z,11.89
2024-03-10T14:03:09.737Z,11.93
2024-03-10T14:05:38.358Z,11.97
2024-03-10T14:08:07.086Z,12.00
2024-03-10T14:10:35.075Z,12.05
2024-03-10T14:13:04.407Z,12.11
2024-03-10T14:15:38.545Z,12.16
2024-03-10T14:18:09.002Z,12.18
2024-03-10T14:20:37.185Z,12.22
2024-03-10T14:23:05.124Z,12.25
2024-03-10T14:25:33.183Z,12.27
2024-03-10T14:28:01.271Z,12.27
2024-03-10T14:30:30.625Z,12.27
2024-03-10T14:33:01.952Z,12.27
2024-03-10T14:35:32.054Z,12.25
2024-03-10T14:38:00.790Z,12.23
2024-03-10T14:40:30.256Z,12.20
2024-03-10T14:42:59.437Z,12.16
2024-03-10T14:45:30.631Z,12.03
2024-03-10T14:47:58.882Z,11.97
2024-03-10T14:50:31.016Z,11.93
2024-03-10T14:52:59.602Z,11.91
2024-03-10T14:55:27.951Z,11.93
2024-03-10T14:57:58.389Z,11.94
2024-03-10T15:00:38.633Z,11.96
2024-03-10T15:03:09.454Z,12.01
2024-03-10T15:05:43.784Z,12.03
2024-03-10T15:08:16.344Z,12.04
2024-03-10T15:10:52.696Z,12.08
2024-03-10T15:13:23.676Z,12.08
2024-03-10T15:15:52.791Z,12.11
2024-03-10T15:18:23.262Z,12.15
2024-03-10T15:20:51.665Z,12.15
2024-03-10T15:23:22.657Z,12.15
2024-03-10T15:25:51.938Z,12.15
2024-03-10T15:28:21.617Z,12.14
2024-03-10T15:30:51.264Z,12.14
2024-03-10T15:33:19.163Z,12.12
2024-03-10T15:35:49.516Z,12.11
2024-03-10T15:38:17.369Z,12.08
2024-03-10T15:40:45.308Z,12.06
2024-03-10T15:43:13.929Z,12.03
2024-03-10T15:45:43.379Z,12.03
2024-03-10T15:48:11.688Z,12.00
2024-03-10T15:50:39.701Z,11.99
2024-03-10T15:53:11.516Z,11.98
2024-03-10T15:55:40.166Z,11.97
2024-03-10T15:58:11.662Z,11.95
2024-03-10T16:00:39.846Z,11.91
2024-03-10T16:03:26.385Z,11.90
2024-03-10T16:05:56.694Z,11.88
2024-03-10T16:08:26.583Z,11.84
2024-03-10T16:10:54.701Z,11.84
2024-03-10T16:13:33.546Z,11.82
2024-03-10T16:16:02.392Z,11.80
2024-03-10T16:18:31.246Z,11.79
2024-03-10T16:21:00.498Z,11.76
2024-03-10T16:23:29.087Z,11.74
2024-03-10T16:25:57.099Z,11.71
2024-03-10T16:28:26.235Z,11.71
2024-03-10T16:30:53.968Z,11.70
2024-03-10T16:33:21.918Z,11.68
2024-03-10T16:35:49.805Z,11.67
2024-03-10T16:38:17.690Z,11.65
2024-03-10T16:40:46.606Z,11.64
2024-03-10T16:43:15.696Z,11.65
2024-03-10T16:45:47.178Z,11.64
2024-03-10T16:48:18.419Z,11.63
2024-03-10T16:50:46.572Z,11.64
2024-03-10T16:53:16.458Z,11.65
2024-03-10T16:55:48.384Z,11.65
2024-03-10T16:58:20.266Z,11.64
2024-03-10T17:00:48.333Z,11.63
2024-03-10T17:03:16.801Z,11.63
2024-03-10T17:05:45.224Z,11.64
2024-03-10T17:08:14.876Z,11.62
2024-03-10T17:10:45.392Z,11.63
2024-03-10T17:13:15.226Z,11.63
2024-03-10T17:15:43.630Z,11.62
2024-03-10T17:18:14.185Z,11.62
2024-03-10T17:20:42.754Z,11.62
2024-03-10T17:23:13.854Z,11.65
2024-03-10T17:25:41.661Z,11.64
2024-03-10T17:28:09.374Z,11.64
2024-03-10T17:30:37.306Z,11.62
2024-03-10T17:33:05.898Z,11.64
2024-03-10T17:35:35.371Z,11.66
2024-03-10T17:38:05.407Z,11.67
2024-03-10T17:40:33.660Z,11.66
2024-03-10T17:43:01.922Z,11.64
2024-03-10T17:45:29.657Z,11.60
2024-03-10T17:47:57.539Z,11.57
2024-03-10T17:50:26.095Z,11.52
2024-03-10T17:52:54.100Z,11.48
2024-03-10T17:55:22.157Z,11.44
2024-03-10T17:57:50.131Z,11.41
2024-03-10T18:00:23.302Z,11.36
2024-03-10T18:02:51.680Z,11.28
2024-03-10T18:05:19.775Z,11.20
2024-03-10T18:07:53.095Z,11.16
2024-03-10T18:10:23.937Z,11.09
2024-03-10T18:12:54.929Z,11.05
2024-03-10T18:15:24.599Z,10.99
2024-03-10T18:17:54.299Z,10.94
2024-03-10T18:20:24.151Z,10.89
2024-03-10T18:22:52.109Z,10.86
2024-03-10T18:25:22.329Z,10.83
2024-03-10T18:27:50.542Z,10.81
2024-03-10T18:30:19.116Z,10.79
2024-03-10T18:32:47.717Z,10.75
2024-03-10T18:35:18.738Z,10.72
2024-03-10T18:37:46.483Z,10.67
2024-03-10T18:40:15.708Z,10.66
2024-03-10T18:42:44.277Z,10.61
2024-03-10T18:45:14.411Z,10.57
2024-03-10T18:47:42.735Z,10.53
2024-03-10T18:50:12.819Z,10.51
2024-03-10T18:52:42.829Z,10.50
2024-03-10T18:55:11.606Z,10.49
2024-03-10T18:57:40.381Z,10.48
2024-03-10T19:00:08.968Z,10.48
2024-03-10T19:02:36.995Z,10.49
2024-03-10T19:05:05.361Z,10.52
2024-03-10T19:07:33.714Z,10.53
2024-03-10T19:10:01.752Z,10.53
2024-03-10T19:12:29.843Z,10.53
2024-03-10T19:14:57.551Z,10.55
2024-03-10T19:17:27.788Z,10.56
2024-03-10T19:19:57.403Z,10.57
2024-03-10T19:22:25.377Z,10.60
2024-03-10T19:24:53.213Z,10.63
2024-03-10T19:27:20.960Z,10.65
2024-03-10T19:29:48.714Z,10.69
2024-03-10T19:32:16.556Z,10.73
2024-03-10T19:34:44.292Z,10.74
2024-03-10T19:37:12.034Z,10.74
2024-03-10T19:39:39.714Z,10.74
2024-03-10T19:42:07.699Z,10.75
2024-03-10T19:44:35.473Z,10.76
2024-03-10T19:47:03.503Z,10.77
2024-03-10T19:49:32.013Z,10.78
2024-03-10T19:51:59.725Z,10.81
2024-03-10T19:54:27.870Z,10.85
2024-03-10T19:56:56.428Z,10.84
2024-03-10T19:59:25.859Z,10.85
2024-03-10T20:01:54.077Z,10.84
2024-03-10T20:04:22.704Z,10.77
2024-03-10T20:06:51.180Z,10.73
2024-03-10T20:09:19.082Z,10.65
2024-03-10T20:11:46.991Z,10.57
2024-03-10T20:14:15.065Z,10.51
2024-03-10T20:16:44.387Z,10.46
2024-03-10T20:19:12.367Z,10.44
2024-03-10T20:21:40.185Z,10.43
2024-03-10T20:24:07.997Z,10.43
2024-03-10T20:26:36.046Z,10.38
2024-03-10T20:29:04.065Z,10.31
2024-03-10T20:31:31.939Z,10.23
2024-03-10T20:33:59.708Z,10.15
2024-03-10T20:36:27.503Z,10.09
2024-03-10T20:38:55.400Z,10.04
2024-03-10T20:41:23.267Z,10.00
2024-03-10T20:43:50.985Z,9.98
2024-03-10T20:46:29.748Z,9.94
2024-03-10T20:49:02.513Z,9.90
2024-03-10T20:51:34.791Z,9.87
2024-03-10T20:54:12.888Z,9.87
2024-03-10T20:56:40.602Z,9.87
2024-03-10T20:59:09.022Z,9.87
2024-03-10T21:01:36.749Z,9.87
2024-03-10T21:04:08.246Z,9.85
2024-03-10T21:06:37.950Z,9.86
2024-03-10T21:09:05.858Z,9.83
2024-03-10T21:11:33.993Z,9.79
2024-03-10T21:14:01.907Z,9.75
2024-03-10T21:16:29.784Z,9.71
2024-03-10T21:18:57.502Z,9.70
2024-03-10T21:21:25.384Z,9.65
2024-03-10T21:23:53.460Z,9.62
2024-03-10T21:26:21.175Z,9.59
2024-03-10T21:28:49.002Z,9.54
2024-03-10T21:31:16.902Z,9.48
2024-03-10T21:33:45.573Z,9.42
2024-03-10T21:36:13.282Z,9.36
2024-03-10T21:38:42.255Z,9.33
2024-03-10T21:41:10.144Z,9.30
2024-03-10T21:43:37.930Z,9.23
2024-03-10T21:46:05.722Z,9.19
2024-03-10T21:48:33.448Z,9.16
2024-03-10T21:51:01.273Z,9.11
2024-03-10T21:53:29.911Z,9.07
2024-03-10T21:55:58.676Z,9.03
2024-03-10T21:58:26.780Z,9.00
2024-03-10T22:00:54.746Z,8.97
2024-03-10T22:03:22.619Z,8.93
2024-03-10T22:05:51.825Z,8.91
2024-03-10T22:08:20.168Z,8.90
2024-03-10T22:10:48.728Z,8.86
2024-03-10T22:13:16.405Z,8.85
2024-03-10T22:15:44.138Z,8.84
2024-03-10T22:18:12.142Z,8.82
2024-03-10T22:20:41.107Z,8.81
2024-03-10T22:23:08.856Z,8.81
2024-03-10T22:25:36.635Z,8.79
2024-03-10T22:28:05.682Z,8.78
2024-03-10T22:30:33.716Z,8.79
2024-03-10T22:33:01.759Z,8.78
2024-03-10T22:35:30.195Z,8.79
2024-03-10T22:37:59.122Z,8.79
2024-03-10T22:40:29.008Z,8.78
2024-03-10T22:42:59.080Z,8.80
2024-03-10T22:45:31.445Z,8.80
2024-03-10T22:48:02.435Z,8.81
2024-03-10T22:50:31.214Z,8.80
2024-03-10T22:53:04.142Z,8.80
2024-03-10T22:55:33.353Z,8.82
2024-03-10T22:58:02.375Z,8.83
2024-03-10T23:00:36.482Z,8.82
2024-03-10T23:03:08.184Z,8.81
2024-03-10T23:05:36.931Z,8.82
2024-03-10T23:08:06.640Z,8.82
2024-03-10T23:10:43.381Z,8.83
2024-03-10T23:13:11.573Z,8.82
2024-03-10T23:15:40.155Z,8.82
2024-03-10T23:18:08.651Z,8.80
2024-03-10T23:20:37.346Z,8.79
2024-03-10T23:23:05.774Z,8.79
2024-03-10T23:25:33.640Z,8.80
2024-03-10T23:28:01.412Z,8.81
2024-03-10T23:30:29.218Z,8.83
2024-03-10T23:32:57.515Z,8.83
2024-03-10T23:35:25.835Z,8.79
2024-03-10T23:37:54.910Z,8.79
2024-03-10T23:40:24.966Z,8.75
2024-03-10T23:42:53.563Z,8.71
2024-03-10T23:45:21.994Z,8.69
2024-03-10T23:47:51.806Z,8.65
2024-03-10T23:50:21.836Z,8.63
2024-03-10T23:52:53.864Z,8.61
2024-03-10T23:55:24.348Z,8.61
2024-03-10T23:58:02.371Z,8.58
